createdAt,value
2022-10-20T00:01:12.476Z,10.33
2022-10-20T00:03:45.074Z,8.33
2022-10-20T00:06:16.929Z,10.33
2022-10-20T00:08:45.683Z,9.33
2022-10-20T00:11:15.420Z,10.33
2022-10-20T00:13:45.866Z,6.67
2022-10-20T00:16:13.881Z,9.00
2022-10-20T00:18:41.374Z,9.33
2022-10-20T00:21:12.750Z,9.33
2022-10-20T00:23:41.491Z,9.33
2022-10-20T00:26:12.766Z,8.00
2022-10-20T00:28:40.158Z,9.67
2022-10-20T00:31:07.878Z,8.00
2022-10-20T00:33:35.831Z,9.33
2022-10-20T00:36:06.098Z,8.67
2022-10-20T00:38:33.579Z,8.00
2022-10-20T00:41:02.184Z,8.00
2022-10-20T00:43:44.846Z,7.67
2022-10-20T00:46:16.001Z,10.33
2022-10-20T00:48:48.440Z,7.67
2022-10-20T00:51:21.154Z,11.33
2022-10-20T00:53:51.947Z,6.00
2022-10-20T00:56:21.232Z,9.00
2022-10-20T00:58:49.601Z,8.33
2022-10-20T01:01:17.190Z,10.50
2022-10-20T01:03:47.799Z,8.00
2022-10-20T01:06:19.434Z,14.50
2022-10-20T01:08:46.817Z,11.50
2022-10-20T01:11:25.187Z,12.50
2022-10-20T01:14:14.204Z,11.75
2022-10-20T01:16:57.414Z,10.00
2022-10-20T01:20:19.485Z,11.00
2022-10-20T01:23:20.056Z,9.25
2022-10-20T01:26:16.639Z,6.00
2022-10-20T01:28:56.637Z,11.25
2022-10-20T01:31:33.416Z,9.25
2022-10-20T01:34:13.403Z,7.50
2022-10-20T01:36:52.814Z,10.50
2022-10-20T01:39:29.747Z,11.75
2022-10-20T01:42:03.404Z,10.25
2022-10-20T01:44:36.094Z,11.25
2022-10-20T01:47:04.911Z,10.00
2022-10-20T01:49:32.001Z,9.75
2022-10-20T01:52:00.505Z,7.50
2022-10-20T01:54:30.141Z,3.25
2022-10-20T01:57:24.967Z,8.50
2022-10-20T02:00:07.249Z,9.50
2022-10-20T02:03:01.012Z,9.75
2022-10-20T02:05:45.941Z,10.25
2022-10-20T02:08:24.870Z,9.50
2022-10-20T02:10:58.755Z,7.33
2022-10-20T02:13:30.230Z,10.25
2022-10-20T02:16:08.858Z,7.00
2022-10-20T02:18:42.555Z,9.00
2022-10-20T02:21:11.163Z,8.75
2022-10-20T02:23:42.468Z,8.50
2022-10-20T02:26:17.127Z,9.75
2022-10-20T02:28:51.440Z,7.75
2022-10-20T02:31:20.679Z,11.00
2022-10-20T02:33:48.689Z,8.50
2022-10-20T02:36:20.334Z,11.25
2022-10-20T02:38:47.685Z,9.25
2022-10-20T02:41:14.495Z,9.25
2022-10-20T02:43:41.405Z,10.50
2022-10-20T02:46:08.406Z,8.00
2022-10-20T02:48:36.731Z,9.50
2022-10-20T02:51:04.127Z,7.25
2022-10-20T02:53:31.483Z,9.75
2022-10-20T02:55:58.535Z,9.25
2022-10-20T02:58:25.882Z,9.00
2022-10-20T03:00:52.793Z,9.75
2022-10-20T03:03:20.032Z,11.75
2022-10-20T03:05:48.302Z,8.50
2022-10-20T03:08:15.477Z,9.75
2022-10-20T03:10:42.733Z,9.00
2022-10-20T03:13:10.318Z,9.25
2022-10-20T03:15:37.681Z,10.00
2022-10-20T03:18:04.834Z,10.25
2022-10-20T03:20:32.263Z,8.75
2022-10-20T03:23:00.535Z,9.50
2022-10-20T03:25:27.471Z,8.00
2022-10-20T03:27:54.346Z,10.00
2022-10-20T03:30:21.194Z,8.00
2022-10-20T03:32:48.738Z,9.75
2022-10-20T03:35:15.731Z,11.00
2022-10-20T03:37:42.518Z,8.25
2022-10-20T03:40:11.397Z,9.00
2022-10-20T03:42:38.559Z,9.00
2022-10-20T03:45:07.389Z,9.00
2022-10-20T03:47:34.261Z,8.25
2022-10-20T03:50:01.140Z,8.00
2022-10-20T03:52:28.674Z,9.00
2022-10-20T03:54:55.573Z,9.25
2022-10-20T03:57:23.953Z,9.75
2022-10-20T03:59:50.917Z,8.00
2022-10-20T04:02:32.685Z,9.75
2022-10-20T04:05:00.435Z,7.25
2022-10-20T04:07:28.715Z,8.25
2022-10-20T04:09:56.692Z,10.25
2022-10-20T04:12:25.281Z,8.00
2022-10-20T04:14:52.169Z,8.75
2022-10-20T04:17:19.045Z,8.50
2022-10-20T04:19:46.109Z,9.00
2022-10-20T04:22:13.471Z,13.75
2022-10-20T04:24:40.447Z,29.00
2022-10-20T04:27:07.772Z,26.00
2022-10-20T04:29:36.276Z,25.50
2022-10-20T04:36:12.025Z,32.25
2022-10-20T04:38:39.427Z,9.75
2022-10-20T04:41:07.745Z,11.25
2022-10-20T04:43:34.906Z,12.00
2022-10-20T04:46:08.381Z,11.50
2022-10-20T04:48:36.086Z,10.00
2022-10-20T04:51:06.108Z,11.25
2022-10-20T04:53:33.108Z,9.25
2022-10-20T04:56:00.985Z,10.75
2022-10-20T04:58:28.086Z,10.00
2022-10-20T05:01:00.736Z,8.75
2022-10-20T05:03:29.032Z,13.50
2022-10-20T05:06:09.785Z,9.00
2022-10-20T05:08:36.870Z,11.50
2022-10-20T05:11:03.990Z,11.00
2022-10-20T05:13:30.876Z,11.00
2022-10-20T05:15:57.665Z,12.75
2022-10-20T05:18:24.440Z,12.00
2022-10-20T05:21:07.839Z,12.00
2022-10-20T05:23:35.695Z,11.75
2022-10-20T05:26:03.923Z,11.25
2022-10-20T05:28:31.025Z,9.00
2022-10-20T05:31:01.993Z,8.00
2022-10-20T05:33:28.846Z,11.00
2022-10-20T05:35:57.276Z,9.00
2022-10-20T05:38:24.225Z,10.50
2022-10-20T05:40:51.103Z,10.50
2022-10-20T05:43:17.972Z,11.25
2022-10-20T05:45:44.835Z,8.50
2022-10-20T05:48:13.984Z,7.75
2022-10-20T05:50:40.881Z,11.25
2022-10-20T05:53:09.014Z,9.50
2022-10-20T05:55:35.850Z,9.75
2022-10-20T05:58:02.708Z,10.50
2022-10-20T06:00:29.500Z,10.25
2022-10-20T06:02:56.741Z,6.50
2022-10-20T06:05:30.385Z,9.00
2022-10-20T06:08:17.276Z,9.75
2022-10-20T06:10:44.095Z,7.75
2022-10-20T06:13:13.404Z,9.33
2022-10-20T06:15:40.263Z,11.75
2022-10-20T06:18:12.497Z,10.33
2022-10-20T06:20:39.345Z,9.33
2022-10-20T06:23:06.700Z,10.25
2022-10-20T06:25:35.003Z,10.25
2022-10-20T06:28:01.810Z,10.00
2022-10-20T06:30:28.678Z,8.00
2022-10-20T06:32:55.786Z,10.25
2022-10-20T06:35:22.667Z,10.50
2022-10-20T06:37:49.455Z,10.75
2022-10-20T06:40:16.493Z,8.25
2022-10-20T06:42:44.957Z,11.00
2022-10-20T06:45:14.366Z,9.75
2022-10-20T06:47:43.796Z,9.50
2022-10-20T06:50:10.683Z,8.75
2022-10-20T06:52:37.911Z,8.25
2022-10-20T06:55:06.106Z,11.00
2022-10-20T06:57:32.882Z,9.75
2022-10-20T07:00:10.122Z,9.25
2022-10-20T07:02:38.701Z,10.00
2022-10-20T07:05:07.078Z,9.50
2022-10-20T07:07:33.939Z,11.00
2022-10-20T07:10:00.757Z,9.00
2022-10-20T07:12:27.545Z,6.00
2022-10-20T07:14:54.521Z,9.75
2022-10-20T07:17:22.715Z,10.00
2022-10-20T07:19:49.505Z,9.25
2022-10-20T07:22:16.279Z,7.00
2022-10-20T07:24:43.261Z,8.00
2022-10-20T07:27:10.309Z,10.00
2022-10-20T07:29:37.875Z,11.00
2022-10-20T07:32:05.160Z,9.25
2022-10-20T07:34:33.396Z,8.00
2022-10-20T07:37:00.506Z,8.80
2022-10-20T07:39:27.656Z,7.40
2022-10-20T07:41:54.621Z,9.40
2022-10-20T07:44:21.874Z,8.40
2022-10-20T07:46:48.782Z,6.80
2022-10-20T07:52:04.500Z,7.20
2022-10-20T07:54:31.538Z,7.00
2022-10-20T07:56:58.403Z,6.80
2022-10-20T07:59:25.319Z,7.40
2022-10-20T08:01:55.910Z,7.40
2022-10-20T08:04:25.779Z,7.20
2022-10-20T08:06:52.652Z,7.20
2022-10-20T08:09:21.145Z,7.40
2022-10-20T08:11:51.401Z,7.20
2022-10-20T08:14:21.354Z,8.00
2022-10-20T08:22:13.252Z,7.80
2022-10-20T08:24:42.169Z,7.00
2022-10-20T08:27:09.113Z,6.40
2022-10-20T08:29:36.681Z,6.80
2022-10-20T08:32:04.160Z,6.00
2022-10-20T08:34:31.841Z,4.60
2022-10-20T08:36:58.854Z,6.40
2022-10-20T08:39:26.029Z,5.80
2022-10-20T08:42:08.060Z,5.00
2022-10-20T08:44:39.682Z,5.00
2022-10-20T08:47:26.644Z,6.50
2022-10-20T08:49:58.139Z,5.25
2022-10-20T08:52:26.880Z,5.25
2022-10-20T08:54:56.488Z,2.00
2022-10-20T08:57:28.613Z,5.25
2022-10-20T09:00:04.699Z,4.75
2022-10-20T09:02:34.940Z,6.25
2022-10-20T09:05:05.001Z,4.00
2022-10-20T09:07:36.510Z,1.50
2022-10-20T09:10:23.347Z,4.75
2022-10-20T09:12:53.412Z,4.50
2022-10-20T09:15:25.021Z,3.50
2022-10-20T09:17:56.658Z,5.00
2022-10-20T09:20:31.535Z,4.75
2022-10-20T09:23:01.400Z,3.40
2022-10-20T09:25:33.232Z,3.60
2022-10-20T09:28:01.614Z,4.00
2022-10-20T09:30:34.216Z,4.00
2022-10-20T09:33:21.092Z,6.00
2022-10-20T09:35:50.288Z,3.40
2022-10-20T09:38:21.507Z,3.80
2022-10-20T09:41:05.074Z,4.00
2022-10-20T09:43:33.666Z,6.00
2022-10-20T09:46:07.079Z,3.40
2022-10-20T09:48:39.655Z,4.00
2022-10-20T09:51:15.221Z,2.40
2022-10-20T09:53:53.682Z,4.00
2022-10-20T09:56:31.612Z,2.00
2022-10-20T09:59:04.172Z,4.20
2022-10-20T10:01:31.061Z,4.00
2022-10-20T10:03:59.125Z,4.20
2022-10-20T10:06:42.155Z,4.40
2022-10-20T10:09:29.761Z,4.00
2022-10-20T10:12:04.202Z,3.20
2022-10-20T10:14:36.506Z,0.40
2022-10-20T10:17:03.819Z,4.40
2022-10-20T10:19:33.893Z,4.75
2022-10-20T10:22:03.850Z,4.75
2022-10-20T10:24:42.336Z,6.00
2022-10-20T10:27:27.258Z,3.25
2022-10-20T10:30:25.860Z,4.00
2022-10-20T10:32:53.029Z,5.00
2022-10-20T10:35:29.275Z,5.00
2022-10-20T10:37:59.010Z,4.75
2022-10-20T10:40:36.663Z,4.25
2022-10-20T10:43:31.234Z,2.50
2022-10-20T10:46:07.325Z,5.00
2022-10-20T10:49:22.149Z,5.80
2022-10-20T10:52:06.789Z,4.00
2022-10-20T10:55:00.544Z,4.20
2022-10-20T10:57:36.668Z,5.40
2022-10-20T11:00:17.114Z,9.50
2022-10-20T11:03:20.162Z,4.40
2022-10-20T11:06:11.618Z,4.00
2022-10-20T11:08:56.775Z,5.00
2022-10-20T11:11:43.195Z,4.80
2022-10-20T11:14:35.678Z,4.80
2022-10-20T11:17:30.981Z,3.60
2022-10-20T11:20:24.604Z,5.00
2022-10-20T11:23:21.374Z,4.00
2022-10-20T11:25:57.570Z,6.00
2022-10-20T11:28:37.053Z,4.00
2022-10-20T11:31:05.458Z,4.50
2022-10-20T11:33:43.809Z,5.00
2022-10-20T11:36:18.296Z,4.00
2022-10-20T11:38:50.452Z,4.00
2022-10-20T11:41:24.554Z,6.00
2022-10-20T11:44:02.191Z,5.00
2022-10-20T11:46:38.882Z,4.00
2022-10-20T11:49:06.248Z,4.00
2022-10-20T11:52:03.971Z,2.25
2022-10-20T11:54:59.878Z,5.75
2022-10-20T11:57:44.712Z,4.00
2022-10-20T12:00:31.217Z,5.00
2022-10-20T12:03:52.070Z,4.75
2022-10-20T12:07:01.544Z,4.75
2022-10-20T12:09:55.788Z,4.00
2022-10-20T12:12:35.515Z,4.50
2022-10-20T12:15:19.861Z,5.75
2022-10-20T12:17:48.715Z,4.00
2022-10-20T12:20:52.151Z,3.25
2022-10-20T12:23:59.278Z,4.00
2022-10-20T12:27:27.043Z,3.75
2022-10-20T12:30:43.172Z,4.00
2022-10-20T12:33:18.685Z,3.75
2022-10-20T12:36:13.599Z,3.25
2022-10-20T12:38:42.830Z,5.75
2022-10-20T12:41:26.261Z,5.00
2022-10-20T12:43:59.198Z,3.50
2022-10-20T12:46:30.849Z,4.25
2022-10-20T12:49:06.631Z,5.25
2022-10-20T12:51:47.616Z,4.00
2022-10-20T12:54:32.501Z,4.50
2022-10-20T12:57:06.050Z,4.25
2022-10-20T12:59:39.390Z,5.00
2022-10-20T13:02:50.135Z,4.00
2022-10-20T13:05:47.857Z,4.25
2022-10-20T13:08:28.814Z,4.25
2022-10-20T13:11:40.150Z,3.50
2022-10-20T13:14:42.275Z,3.00
2022-10-20T13:17:25.360Z,4.50
2022-10-20T13:20:01.247Z,3.00
2022-10-20T13:22:41.637Z,4.00
2022-10-20T13:25:35.258Z,3.25
2022-10-20T13:28:20.103Z,5.00
2022-10-20T13:31:16.677Z,4.25
2022-10-20T13:34:10.198Z,4.00
2022-10-20T13:37:15.563Z,3.25
2022-10-20T13:39:58.676Z,4.50
2022-10-20T13:42:46.141Z,5.50
2022-10-20T13:45:33.750Z,5.00
2022-10-20T13:48:20.730Z,4.25
2022-10-20T13:50:58.476Z,4.50
2022-10-20T13:53:31.213Z,5.25
2022-10-20T13:56:05.590Z,5.00
2022-10-20T13:58:34.808Z,3.50
2022-10-20T14:01:05.468Z,4.00
2022-10-20T14:03:43.797Z,3.75
2022-10-20T14:06:33.712Z,5.00
2022-10-20T14:09:17.696Z,3.25
2022-10-20T14:11:49.181Z,4.25
2022-10-20T14:14:22.689Z,6.00
2022-10-20T14:16:56.174Z,5.25
2022-10-20T14:19:25.662Z,4.75
2022-10-20T14:21:52.449Z,8.50
2022-10-20T14:24:29.538Z,5.75
2022-10-20T14:29:32.356Z,7.50
2022-10-20T14:32:00.266Z,9.50
2022-10-20T14:34:34.117Z,9.00
2022-10-20T14:37:02.499Z,8.00
2022-10-20T14:39:36.105Z,8.25
2022-10-20T14:42:14.643Z,8.25
2022-10-20T14:44:44.902Z,10.00
2022-10-20T14:47:15.494Z,7.25
2022-10-20T14:49:51.563Z,10.50
2022-10-20T14:52:22.677Z,9.25
2022-10-20T14:54:51.111Z,9.50
2022-10-20T14:57:43.131Z,10.25
2022-10-20T15:00:34.048Z,10.00
2022-10-20T15:03:07.360Z,12.00
2022-10-20T15:05:42.468Z,9.75
2022-10-20T15:08:25.718Z,10.00
2022-10-20T15:10:53.365Z,10.75
2022-10-20T15:13:28.504Z,11.25
2022-10-20T15:15:59.878Z,10.00
2022-10-20T15:18:28.863Z,10.25
2022-10-20T15:20:57.541Z,7.50
2022-10-20T15:23:27.047Z,20.00
2022-10-20T15:26:00.041Z,12.50
2022-10-20T15:28:39.140Z,10.75
2022-10-20T15:31:17.146Z,9.25
2022-10-20T15:33:43.946Z,10.50
2022-10-20T15:36:15.652Z,12.50
2022-10-20T15:38:42.810Z,11.00
2022-10-20T15:41:13.434Z,10.50
2022-10-20T15:43:40.243Z,10.25
2022-10-20T15:46:12.145Z,11.00
2022-10-20T15:48:39.176Z,9.75
2022-10-20T15:51:16.943Z,11.50
2022-10-20T15:53:43.717Z,11.75
2022-10-20T15:56:10.700Z,11.00
2022-10-20T15:58:39.813Z,10.75
2022-10-20T16:01:07.856Z,10.00
2022-10-20T16:03:34.923Z,10.75
2022-10-20T16:06:01.806Z,9.75
2022-10-20T16:08:29.991Z,11.00
2022-10-20T16:10:57.495Z,11.25
2022-10-20T16:13:24.331Z,12.25
2022-10-20T16:15:51.228Z,12.25
2022-10-20T16:18:18.059Z,9.75
2022-10-20T16:20:45.077Z,12.00
2022-10-20T16:23:11.902Z,11.00
2022-10-20T16:25:41.008Z,11.50
2022-10-20T16:28:08.755Z,12.00
2022-10-20T16:30:35.823Z,12.50
2022-10-20T16:33:02.805Z,12.50
2022-10-20T16:35:29.542Z,12.25
2022-10-20T16:37:56.340Z,15.75
2022-10-20T16:40:23.386Z,11.50
2022-10-20T16:42:51.593Z,14.25
2022-10-20T16:45:18.820Z,14.50
2022-10-20T16:47:46.117Z,13.00
2022-10-20T16:50:12.940Z,11.75
2022-10-20T16:52:39.702Z,13.00
2022-10-20T16:55:07.550Z,12.25
2022-10-20T16:57:36.668Z,12.50
2022-10-20T17:00:08.466Z,13.50
2022-10-20T17:02:35.801Z,12.75
2022-10-20T17:05:05.360Z,12.25
2022-10-20T17:07:35.703Z,10.75
2022-10-20T17:10:02.806Z,12.75
2022-10-20T17:12:29.683Z,14.00
2022-10-20T17:14:56.415Z,11.50
2022-10-20T17:17:24.814Z,12.00
2022-10-20T17:19:51.599Z,12.25
2022-10-20T17:22:22.162Z,9.75
2022-10-20T17:25:19.551Z,12.75
2022-10-20T17:27:48.202Z,35.50
2022-10-20T17:33:40.255Z,9.75
2022-10-20T17:36:08.595Z,13.50
2022-10-20T17:38:35.992Z,13.00
2022-10-20T17:41:04.772Z,13.00
2022-10-20T17:43:32.508Z,13.50
2022-10-20T17:46:02.177Z,12.25
2022-10-20T17:48:29.894Z,5.75
2022-10-20T17:51:03.540Z,10.00
2022-10-20T17:53:32.057Z,15.25
2022-10-20T17:56:01.599Z,12.25
2022-10-20T17:58:28.915Z,12.25
2022-10-20T18:01:06.218Z,12.00
2022-10-20T18:03:33.229Z,12.00
2022-10-20T18:06:09.730Z,12.75
2022-10-20T18:08:36.717Z,14.75
2022-10-20T18:11:08.921Z,13.25
2022-10-20T18:13:38.312Z,14.00
2022-10-20T18:16:07.577Z,11.25
2022-10-20T18:18:34.849Z,13.25
2022-10-20T18:21:02.840Z,15.00
2022-10-20T18:23:31.320Z,12.75
2022-10-20T18:26:04.847Z,12.25
2022-10-20T18:28:31.877Z,11.25
2022-10-20T18:31:05.553Z,13.50
2022-10-20T18:33:32.558Z,12.50
2022-10-20T18:36:02.940Z,11.50
2022-10-20T18:38:34.147Z,13.25
2022-10-20T18:41:05.103Z,16.50
2022-10-20T18:43:32.205Z,17.50
2022-10-20T18:45:59.193Z,12.25
2022-10-20T18:48:26.422Z,14.00
2022-10-20T18:50:54.419Z,14.50
2022-10-20T18:53:21.918Z,13.50
2022-10-20T18:56:00.707Z,14.25
2022-10-20T18:58:28.886Z,12.50
2022-10-20T19:01:00.456Z,13.50
2022-10-20T19:03:27.648Z,12.50
2022-10-20T19:05:59.501Z,12.50
2022-10-20T19:08:26.582Z,13.75
2022-10-20T19:10:53.677Z,15.00
2022-10-20T19:13:24.453Z,16.50
2022-10-20T19:15:51.938Z,16.25
2022-10-20T19:18:19.282Z,16.00
2022-10-20T19:20:54.398Z,12.75
2022-10-20T19:23:21.451Z,11.75
2022-10-20T19:25:48.414Z,14.25
2022-10-20T19:28:15.343Z,13.25
2022-10-20T19:30:43.855Z,14.25
2022-10-20T19:33:10.655Z,14.25
2022-10-20T19:35:38.742Z,14.00
2022-10-20T19:38:05.709Z,12.00
2022-10-20T19:40:32.774Z,15.75
2022-10-20T19:42:59.822Z,15.75
2022-10-20T19:45:26.627Z,15.75
2022-10-20T19:47:54.816Z,15.00
2022-10-20T19:50:24.885Z,16.00
2022-10-20T19:52:56.414Z,16.33
2022-10-20T19:55:25.572Z,14.00
2022-10-20T20:01:33.551Z,17.75
2022-10-20T20:04:02.450Z,15.67
2022-10-20T20:06:29.487Z,16.67
2022-10-20T20:09:00.507Z,16.33
2022-10-20T20:11:34.718Z,18.00
2022-10-20T20:14:08.239Z,14.67
2022-10-20T20:16:35.991Z,16.25
2022-10-20T20:19:04.469Z,15.50
2022-10-20T20:21:33.398Z,16.25
2022-10-20T20:24:05.451Z,14.00
2022-10-20T20:26:36.083Z,10.25
2022-10-20T20:29:04.843Z,16.50
2022-10-20T20:31:32.573Z,15.75
2022-10-20T20:33:59.388Z,16.75
2022-10-20T20:36:28.292Z,15.75
2022-10-20T20:38:58.744Z,13.00
2022-10-20T20:41:28.118Z,16.25
2022-10-20T20:43:55.404Z,13.25
2022-10-20T20:46:25.271Z,13.75
2022-10-20T20:48:57.394Z,16.00
2022-10-20T20:51:25.179Z,12.50
2022-10-20T20:53:53.392Z,16.00
2022-10-20T20:56:23.234Z,13.50
2022-10-20T20:58:55.029Z,13.75
2022-10-20T21:01:25.499Z,16.75
2022-10-20T21:03:53.601Z,15.25
2022-10-20T21:06:25.636Z,13.25
2022-10-20T21:09:02.254Z,14.25
2022-10-20T21:11:29.340Z,14.75
2022-10-20T21:13:57.727Z,14.25
2022-10-20T21:16:27.177Z,14.67
2022-10-20T21:18:58.064Z,16.25
2022-10-20T21:21:28.289Z,14.75
2022-10-20T21:23:57.435Z,13.25
2022-10-20T21:26:27.249Z,17.00
2022-10-20T21:28:54.682Z,17.00
2022-10-20T21:31:23.962Z,15.25
2022-10-20T21:33:53.237Z,15.75
2022-10-20T21:36:21.835Z,15.50
2022-10-20T21:38:52.703Z,16.00
2022-10-20T21:41:21.367Z,15.50
2022-10-20T21:43:52.665Z,12.25
2022-10-20T21:46:23.261Z,15.00
2022-10-20T21:48:54.129Z,12.50
2022-10-20T21:51:24.568Z,15.25
2022-10-20T21:53:55.025Z,15.00
2022-10-20T21:56:22.502Z,15.00
2022-10-20T21:58:51.369Z,14.00
2022-10-20T22:01:22.342Z,11.25
2022-10-20T22:03:51.675Z,13.00
2022-10-20T22:06:22.339Z,13.75
2022-10-20T22:08:58.703Z,12.75
2022-10-20T22:11:28.822Z,13.00
2022-10-20T22:14:00.052Z,15.25
2022-10-20T22:16:31.360Z,16.00
2022-10-20T22:19:01.248Z,14.00
2022-10-20T22:21:29.328Z,12.75
2022-10-20T22:24:03.349Z,16.25
2022-10-20T22:26:31.492Z,14.25
2022-10-20T22:29:00.505Z,14.67
2022-10-20T22:31:28.277Z,14.75
2022-10-20T22:33:57.672Z,15.50
2022-10-20T22:36:26.640Z,12.00
2022-10-20T22:38:53.583Z,12.75
2022-10-20T22:41:21.083Z,15.25
2022-10-20T22:43:54.572Z,12.75
2022-10-20T22:46:22.844Z,12.25
2022-10-20T22:48:51.129Z,15.00
2022-10-20T22:51:17.997Z,14.50
2022-10-20T22:53:44.858Z,17.33
2022-10-20T22:56:14.763Z,17.33
2022-10-20T22:58:42.614Z,14.50
2022-10-20T23:01:12.614Z,15.00
2022-10-20T23:03:41.180Z,17.33
2022-10-20T23:06:10.547Z,15.50
2022-10-20T23:08:39.326Z,16.00
2022-10-20T23:11:06.126Z,14.25
2022-10-20T23:13:32.995Z,13.00
2022-10-20T23:16:00.478Z,16.00
2022-10-20T23:18:27.515Z,11.75
2022-10-20T23:20:58.121Z,16.00
2022-10-20T23:23:26.199Z,13.25
2022-10-20T23:25:53.365Z,19.67
2022-10-20T23:28:20.771Z,14.25
2022-10-20T23:30:47.956Z,13.33
2022-10-20T23:33:15.215Z,13.67
2022-10-20T23:35:42.000Z,17.00
2022-10-20T23:38:10.435Z,16.33
2022-10-20T23:40:37.964Z,14.00
2022-10-20T23:43:04.794Z,12.33
2022-10-20T23:45:34.113Z,15.00
2022-10-20T23:48:04.128Z,17.33
2022-10-20T23:50:30.926Z,15.00
2022-10-20T23:52:57.775Z,14.33
2022-10-20T23:55:26.033Z,12.00
2022-10-20T23:57:52.911Z,14.67
